الصفحة الرئيسية
METAR-TAF:

METAR-TAF

مطار :

Mount Isa, أستراليا

دائرة عرض: 20-40S, خط طول: 139-28E, ارتفاع: 342 متر

مراقبة الطقس الحالي

تاريخ ووقت الإصدار 18 دقيقة قبل الساعة 18:30UTC
ريح 7 عقدة من الشمال
درجة الحرارة 26°درجة مئوية
الرطوبة 70%
ضغط 1011 hPa
الرؤية 10 كم أو أكثر

METAR: YBMA 081830Z AUTO 01007KT 9999 // NCD 26/20 Q1011 RF00.0/000.0

زمن: 04:48 (18:48 UTC)

توقعات

تاريخ ووقت الإصدار 1ساعة و 28 دقيقة قبل الساعة 17:20UTC
التوقعات صالحة من08 الساعة 18 UTC إلى 09 الساعة 06 UTC
ريح 8 عقدة من الشمال الشرقي
الرؤية 10 كم أو أكثر
الغيوم لا تقل 1500 م ولا وجود لمزنة ركامية السحاب الأسود

TAF: YBMA 081720Z 0818/0906 04008KT CAVOK

أرصاد الطقس والتوقعات من أكثر من 4000 مطار (تقارير الطقس للمطار METAR والتنبؤ بالطقس بالمطارTAF).

المحطات المتاحة هي النقط الصفراء والحمراء على الخريطة.

حرك المؤشر فوق النقطة لمعرفة اسم المحطة.

ثم انقر لمعرفة أرصاد وتوقعات الطقس.

لتغيير الخارطة: اضغط على الأزرار الخضراء مع رمز الصليب الأسود للتكبير. على الزر الأخضر مع شرطة للتصغير، أو على الأسهم الخضراء للخرائط المجاورة.


METAR-TAF: